createdAt,value
2023-02-05T00:03:49.470Z,1.57
2023-02-05T00:13:50.683Z,1.42
2023-02-05T00:23:51.941Z,1.33
2023-02-05T00:33:53.137Z,1.31
2023-02-05T00:43:54.364Z,1.18
2023-02-05T00:53:55.681Z,1.24
2023-02-05T01:03:57.038Z,1.28
2023-02-05T01:13:58.328Z,1.30
2023-02-05T01:24:01.551Z,1.33
2023-02-05T01:34:02.755Z,1.55
2023-02-05T01:44:04.030Z,1.57
2023-02-05T01:54:05.231Z,1.69
2023-02-05T02:04:06.428Z,1.77
2023-02-05T02:14:07.686Z,1.61
2023-02-05T02:24:08.909Z,1.57
2023-02-05T02:34:10.133Z,1.68
2023-02-05T02:44:11.364Z,1.80
2023-02-05T02:54:12.592Z,1.86
2023-02-05T03:04:14.095Z,1.86
2023-02-05T03:14:15.299Z,1.78
2023-02-05T03:24:16.537Z,2.00
2023-02-05T03:34:17.768Z,2.17
2023-02-05T03:44:19.052Z,2.27
2023-02-05T03:54:20.276Z,2.24
2023-02-05T04:04:21.502Z,2.23
2023-02-05T04:14:22.728Z,2.31
2023-02-05T04:24:25.165Z,2.36
2023-02-05T04:34:26.388Z,2.44
2023-02-05T04:44:27.624Z,2.40
2023-02-05T04:54:28.936Z,2.35
2023-02-05T05:04:30.150Z,2.27
2023-02-05T05:14:31.385Z,2.49
2023-02-05T05:24:32.616Z,2.48
2023-02-05T05:34:33.873Z,2.57
2023-02-05T05:44:35.096Z,2.65
2023-02-05T05:54:36.299Z,2.73
2023-02-05T06:04:37.491Z,2.82
2023-02-05T06:14:38.729Z,2.88
2023-02-05T06:24:40.232Z,2.87
2023-02-05T06:34:41.466Z,2.96
2023-02-05T06:44:42.701Z,2.91
2023-02-05T06:54:44.666Z,2.97
2023-02-05T07:04:45.882Z,3.08
2023-02-05T07:14:47.148Z,3.20
2023-02-05T07:24:48.347Z,3.38
2023-02-05T07:34:49.528Z,3.43
2023-02-05T07:44:50.754Z,3.46
2023-02-05T07:54:52.015Z,3.51
2023-02-05T08:04:53.261Z,3.58
2023-02-05T08:14:54.890Z,3.61
2023-02-05T08:24:56.132Z,3.58
2023-02-05T08:34:58.748Z,3.59
2023-02-05T08:45:00.829Z,3.68
2023-02-05T08:55:02.046Z,3.74
2023-02-05T09:05:08.791Z,3.81
2023-02-05T09:15:10.777Z,3.93
2023-02-05T09:25:12.128Z,4.00
2023-02-05T09:35:13.351Z,4.05
2023-02-05T09:45:14.585Z,4.05
2023-02-05T10:27:27.962Z,4.35
2023-02-05T10:37:29.231Z,4.40
2023-02-05T10:47:30.527Z,4.58
2023-02-05T10:57:31.794Z,4.64
2023-02-05T11:07:33.129Z,4.65
2023-02-05T11:17:34.542Z,4.44
2023-02-05T11:27:35.853Z,4.52
2023-02-05T11:37:37.158Z,4.61
2023-02-05T11:47:38.424Z,4.51
2023-02-05T11:57:41.745Z,4.55
2023-02-05T12:07:43.065Z,4.54
2023-02-05T12:17:45.395Z,4.55
2023-02-05T12:48:40.252Z,4.87
2023-02-05T12:58:41.542Z,4.85
2023-02-05T13:08:42.807Z,4.96
2023-02-05T14:00:25.775Z,4.96
2023-02-05T14:10:27.096Z,4.92
2023-02-05T14:20:28.345Z,4.92
2023-02-05T14:30:37.559Z,4.96
2023-02-05T14:40:38.896Z,5.00
2023-02-05T14:50:40.221Z,4.92
2023-02-05T15:00:44.613Z,4.77
2023-02-05T15:10:45.950Z,4.81
2023-02-05T15:20:47.411Z,4.94
2023-02-05T15:30:48.782Z,5.01
2023-02-05T15:40:50.133Z,4.88
2023-02-05T15:50:58.615Z,4.81
2023-02-05T16:00:59.901Z,4.75
2023-02-05T16:11:05.973Z,4.79
2023-02-05T16:21:07.282Z,4.74
2023-02-05T16:31:08.721Z,4.77
2023-02-05T16:41:10.026Z,4.78
2023-02-05T16:51:11.453Z,4.79
2023-02-05T17:01:12.779Z,4.73
2023-02-05T17:11:14.082Z,4.66
2023-02-05T17:21:15.339Z,4.65
2023-02-05T17:31:17.851Z,4.68
2023-02-05T17:41:37.704Z,4.70
2023-02-05T17:51:41.721Z,4.71
2023-02-05T18:01:43.451Z,4.63
2023-02-05T18:11:44.742Z,4.51
2023-02-05T18:21:47.219Z,4.53
2023-02-05T18:31:48.501Z,4.50
2023-02-05T18:41:49.881Z,4.38
2023-02-05T18:51:51.196Z,4.36
2023-02-05T19:01:54.609Z,4.31
2023-02-05T19:11:56.757Z,4.35
2023-02-05T19:22:02.804Z,4.31
2023-02-05T19:32:05.978Z,4.34
2023-02-05T19:42:08.263Z,4.34
2023-02-05T19:52:09.637Z,4.28
2023-02-05T20:02:10.874Z,4.23
2023-02-05T20:12:13.087Z,4.12
2023-02-05T20:22:14.456Z,4.07
2023-02-05T20:32:15.702Z,4.09
2023-02-05T20:42:17.036Z,4.01
2023-02-05T20:52:18.332Z,3.96
2023-02-05T21:02:20.969Z,3.97
2023-02-05T21:12:27.842Z,3.91
2023-02-05T21:22:29.200Z,3.88
2023-02-05T21:32:30.659Z,3.88
2023-02-05T21:42:31.974Z,3.85
2023-02-05T21:52:33.398Z,3.96
2023-02-05T22:02:34.673Z,3.86
2023-02-05T22:12:35.937Z,3.85
2023-02-05T22:22:37.180Z,3.77
2023-02-05T22:32:38.490Z,3.60
2023-02-05T22:42:39.812Z,3.60
2023-02-05T22:52:41.063Z,3.50
2023-02-05T23:02:42.325Z,3.54
2023-02-05T23:12:43.576Z,3.57
2023-02-05T23:22:44.856Z,3.57
2023-02-05T23:32:46.186Z,3.60
2023-02-05T23:42:47.437Z,3.60
2023-02-05T23:52:48.794Z,3.44
